createdAt,value
2023-01-10T00:00:12.107Z,97706.86
2023-01-10T00:03:16.006Z,97711.50
2023-01-10T00:06:19.336Z,97711.93
2023-01-10T00:09:23.820Z,97713.20
2023-01-10T00:12:46.247Z,97714.01
2023-01-10T00:15:54.065Z,97711.81
2023-01-10T00:18:57.915Z,97709.21
2023-01-10T00:22:06.160Z,97716.73
2023-01-10T00:25:10.033Z,97715.73
2023-01-10T00:28:13.863Z,97716.73
2023-01-10T00:31:17.654Z,97722.23
2023-01-10T00:34:22.019Z,97729.80
2023-01-10T00:37:25.844Z,97729.85
2023-01-10T00:40:29.387Z,97741.44
2023-01-10T00:43:51.199Z,97743.75
2023-01-10T00:46:55.133Z,97742.38
2023-01-10T00:49:59.267Z,97745.04
2023-01-10T00:53:03.193Z,97745.89
2023-01-10T00:56:07.918Z,97752.25
2023-01-10T00:59:11.372Z,97747.13
2023-01-10T01:02:15.389Z,97754.59
2023-01-10T01:05:21.061Z,97757.86
2023-01-10T01:08:25.492Z,97757.21
2023-01-10T01:11:29.412Z,97757.58
2023-01-10T01:14:32.762Z,97757.91
2023-01-10T01:17:36.621Z,97754.32
2023-01-10T01:20:42.578Z,97754.27
2023-01-10T01:23:46.036Z,97754.91
2023-01-10T01:26:49.516Z,97762.56
2023-01-10T01:29:53.025Z,97760.38
2023-01-10T01:32:56.655Z,97764.98
2023-01-10T01:36:00.890Z,97768.77
2023-01-10T01:39:06.641Z,97771.95
2023-01-10T01:42:26.862Z,97777.80
2023-01-10T01:45:30.307Z,97776.83
2023-01-10T01:48:43.341Z,97776.80
2023-01-10T01:51:54.851Z,97777.57
2023-01-10T01:55:00.720Z,97775.86
2023-01-10T01:58:14.136Z,97772.83
2023-01-10T02:01:18.807Z,97776.52
2023-01-10T02:04:45.785Z,97775.56
2023-01-10T02:07:55.340Z,97779.23
2023-01-10T02:11:12.163Z,97783.75
2023-01-10T02:14:15.871Z,97784.68
2023-01-10T02:17:19.625Z,97785.96
2023-01-10T02:20:24.536Z,97789.44
2023-01-10T02:24:11.183Z,97791.31
2023-01-10T02:27:48.978Z,97795.20
2023-01-10T02:31:12.217Z,97803.48
2023-01-10T02:34:27.908Z,97805.89
2023-01-10T02:38:06.051Z,97808.48
2023-01-10T02:41:53.655Z,97807.52
2023-01-10T02:45:09.033Z,97811.64
2023-01-10T02:48:13.377Z,97812.70
2023-01-10T02:51:29.646Z,97811.17
2023-01-10T02:54:33.208Z,97813.45
2023-01-10T02:58:04.110Z,97808.34
2023-01-10T03:01:36.164Z,97814.15
2023-01-10T03:05:19.968Z,97821.14
2023-01-10T03:08:47.116Z,97828.66
2023-01-10T03:11:55.595Z,97830.83
2023-01-10T03:15:01.393Z,97834.16
2023-01-10T03:18:21.276Z,97840.38
2023-01-10T03:21:26.890Z,97843.70
2023-01-10T03:24:42.182Z,97845.50
2023-01-10T03:27:56.419Z,97852.35
2023-01-10T03:31:19.747Z,97858.96
2023-01-10T03:34:25.250Z,97868.85
2023-01-10T03:38:10.472Z,97874.70
2023-01-10T03:41:44.703Z,97876.67
2023-01-10T03:44:54.056Z,97879.17
2023-01-10T03:48:02.005Z,97887.23
2023-01-10T03:51:08.060Z,97889.58
2023-01-10T03:54:12.530Z,97893.89
2023-01-10T03:57:22.560Z,97897.39
2023-01-10T04:00:26.394Z,97903.02
2023-01-10T04:03:30.214Z,97908.84
2023-01-10T04:06:33.564Z,97916.73
2023-01-10T04:09:37.529Z,97926.39
2023-01-10T04:12:40.821Z,97935.83
2023-01-10T04:15:44.483Z,97943.60
2023-01-10T04:18:48.100Z,97943.17
2023-01-10T04:21:51.828Z,97945.89
2023-01-10T04:24:56.012Z,97957.17
2023-01-10T04:27:59.534Z,97962.09
2023-01-10T04:31:03.356Z,97969.31
2023-01-10T04:34:11.057Z,97975.20
2023-01-10T04:37:14.534Z,97982.52
2023-01-10T04:40:19.915Z,97987.23
2023-01-10T04:43:24.919Z,97993.75
2023-01-10T04:46:28.572Z,97998.52
2023-01-10T04:49:32.033Z,97999.32
2023-01-10T04:52:35.717Z,98001.45
2023-01-10T04:55:38.831Z,98006.04
2023-01-10T04:58:42.242Z,98011.14
2023-01-10T05:01:45.511Z,98017.16
2023-01-10T05:04:48.724Z,98024.73
2023-01-10T05:07:53.249Z,98028.95
2023-01-10T05:10:56.962Z,98032.09
2023-01-10T05:14:00.982Z,98039.23
2023-01-10T05:17:04.205Z,98039.48
2023-01-10T05:20:09.299Z,98046.26
2023-01-10T05:23:12.884Z,98045.04
2023-01-10T05:26:20.302Z,98050.23
2023-01-10T05:29:27.291Z,98053.69
2023-01-10T05:32:31.229Z,98054.48
2023-01-10T05:35:35.408Z,98053.02
2023-01-10T05:38:39.223Z,98048.73
2023-01-10T05:41:44.820Z,98059.21
2023-01-10T05:44:49.210Z,98062.56
2023-01-10T05:47:52.756Z,98064.73
2023-01-10T05:50:58.917Z,98073.47
2023-01-10T05:54:03.857Z,98078.86
2023-01-10T05:57:07.815Z,98081.78
2023-01-10T06:00:14.004Z,98089.91
2023-01-10T06:03:18.245Z,98090.17
2023-01-10T06:06:21.485Z,98100.48
2023-01-10T06:09:24.910Z,98104.40
2023-01-10T06:12:29.109Z,98107.21
2023-01-10T06:15:33.863Z,98111.52
2023-01-10T06:18:37.794Z,98118.15
2023-01-10T06:21:41.805Z,98120.70
2023-01-10T06:24:44.647Z,98128.21
2023-01-10T06:27:49.773Z,98132.14
2023-01-10T06:30:56.146Z,98134.94
2023-01-10T06:33:59.710Z,98140.00
2023-01-10T06:37:03.133Z,98147.60
2023-01-10T06:40:08.589Z,98152.54
2023-01-10T06:43:12.059Z,98159.22
2023-01-10T06:46:19.657Z,98176.27
2023-01-10T06:49:22.953Z,98181.48
2023-01-10T06:52:26.358Z,98183.20
2023-01-10T06:55:30.280Z,98184.19
2023-01-10T06:58:35.116Z,98184.89
2023-01-10T07:01:39.282Z,98191.95
2023-01-10T07:04:42.918Z,98197.59
2023-01-10T07:07:47.035Z,98202.33
2023-01-10T07:10:50.376Z,98203.95
2023-01-10T07:13:54.362Z,98213.27
2023-01-10T07:16:57.957Z,98214.36
2023-01-10T07:20:01.776Z,98225.52
2023-01-10T07:23:05.390Z,98226.21
2023-01-10T07:26:17.923Z,98227.89
2023-01-10T07:29:21.420Z,98228.44
2023-01-10T07:32:25.222Z,98238.09
2023-01-10T07:35:28.577Z,98238.04
2023-01-10T07:38:32.353Z,98242.72
2023-01-10T07:41:35.794Z,98253.70
2023-01-10T07:44:39.957Z,98253.38
2023-01-10T07:47:43.415Z,98255.59
2023-01-10T07:50:46.751Z,98259.09
2023-01-10T07:53:49.806Z,98258.05
2023-01-10T07:56:52.988Z,98263.98
2023-01-10T07:59:56.203Z,98263.36
2023-01-10T08:02:59.640Z,98265.25
2023-01-10T08:06:07.222Z,98269.11
2023-01-10T08:09:09.999Z,98278.19
2023-01-10T08:12:13.185Z,98277.43
2023-01-10T08:15:17.501Z,98275.50
2023-01-10T08:18:23.494Z,98272.91
2023-01-10T08:21:27.056Z,98272.36
2023-01-10T08:24:30.480Z,98273.96
2023-01-10T08:27:34.302Z,98276.54
2023-01-10T08:30:38.706Z,98281.89
2023-01-10T08:33:42.018Z,98285.73
2023-01-10T08:36:45.365Z,98293.70
2023-01-10T08:39:48.715Z,98303.35
2023-01-10T08:43:06.444Z,98302.88
2023-01-10T08:46:09.589Z,98300.05
2023-01-10T08:49:12.915Z,98300.81
2023-01-10T08:52:17.924Z,98304.91
2023-01-10T08:55:21.837Z,98300.83
2023-01-10T08:58:24.918Z,98300.70
2023-01-10T09:01:28.181Z,98310.27
2023-01-10T09:04:33.058Z,98318.26
2023-01-10T09:07:36.680Z,98323.10
2023-01-10T09:10:39.882Z,98317.45
2023-01-10T09:13:43.017Z,98321.14
2023-01-10T09:16:46.493Z,98325.20
2023-01-10T09:19:50.469Z,98324.03
2023-01-10T09:22:54.613Z,98320.10
2023-01-10T09:25:58.091Z,98323.70
2023-01-10T09:29:01.019Z,98318.48
2023-01-10T09:32:04.518Z,98323.36
2023-01-10T09:35:08.461Z,98319.27
2023-01-10T09:38:16.779Z,98321.06
2023-01-10T09:41:52.126Z,98321.60
2023-01-10T09:45:15.963Z,98326.45
2023-01-10T09:48:54.891Z,98337.83
2023-01-10T09:51:59.478Z,98348.95
2023-01-10T09:55:34.068Z,98352.88
2023-01-10T09:58:38.987Z,98359.63
2023-01-10T10:01:42.600Z,98360.18
2023-01-10T10:04:53.096Z,98366.70
2023-01-10T10:08:05.460Z,98366.83
2023-01-10T10:11:26.813Z,98368.55
2023-01-10T10:15:04.429Z,98369.72
2023-01-10T10:18:26.650Z,98369.98
2023-01-10T10:21:37.025Z,98377.64
2023-01-10T10:25:04.087Z,98380.77
2023-01-10T10:28:53.537Z,98374.30
2023-01-10T10:32:22.867Z,98374.51
2023-01-10T10:36:01.140Z,98379.52
2023-01-10T10:39:13.410Z,98388.16
2023-01-10T10:42:19.927Z,98388.77
2023-01-10T10:45:39.848Z,98394.20
2023-01-10T10:49:04.900Z,98399.86
2023-01-10T10:52:37.496Z,98408.64
2023-01-10T10:55:40.804Z,98415.84
2023-01-10T10:58:55.755Z,98418.05
2023-01-10T11:01:58.708Z,98428.11
2023-01-10T11:05:06.664Z,98432.30
2023-01-10T11:08:13.025Z,98439.14
2023-01-10T11:11:39.861Z,98439.62
2023-01-10T11:14:52.393Z,98435.82
2023-01-10T11:18:20.728Z,98432.32
2023-01-10T11:21:25.253Z,98434.64
2023-01-10T11:24:53.273Z,98444.13
2023-01-10T11:28:03.806Z,98446.26
2023-01-10T11:31:07.114Z,98446.33
2023-01-10T11:34:23.047Z,98449.22
2023-01-10T11:37:35.535Z,98457.90
2023-01-10T11:40:39.477Z,98468.92
2023-01-10T11:43:42.221Z,98467.34
2023-01-10T11:46:49.415Z,98468.42
2023-01-10T11:49:52.263Z,98468.80
2023-01-10T11:52:56.167Z,98471.21
2023-01-10T11:55:58.765Z,98468.09
2023-01-10T11:59:12.680Z,98472.60
2023-01-10T12:02:26.794Z,98472.71
2023-01-10T12:05:29.543Z,98480.39
2023-01-10T12:08:38.484Z,98484.27
2023-01-10T12:11:41.631Z,98488.71
2023-01-10T12:14:44.902Z,98497.77
2023-01-10T12:17:47.897Z,98505.25
2023-01-10T12:20:52.941Z,98513.77
2023-01-10T12:23:59.863Z,98516.85
2023-01-10T12:27:06.042Z,98522.02
2023-01-10T12:30:22.030Z,98526.83
2023-01-10T12:33:34.014Z,98529.84
2023-01-10T12:36:59.563Z,98535.65
2023-01-10T12:40:19.435Z,98539.90
2023-01-10T12:43:57.758Z,98541.08
2023-01-10T12:47:19.982Z,98546.84
2023-01-10T12:50:37.441Z,98555.23
2023-01-10T12:53:44.409Z,98556.48
2023-01-10T12:56:47.565Z,98557.20
2023-01-10T12:59:53.184Z,98560.91
2023-01-10T13:03:00.851Z,98568.84
2023-01-10T13:06:04.095Z,98571.47
2023-01-10T13:09:31.329Z,98575.95
2023-01-10T13:12:44.929Z,98573.73
2023-01-10T13:16:02.837Z,98573.69
2023-01-10T13:19:11.263Z,98579.48
2023-01-10T13:22:23.617Z,98588.21
2023-01-10T13:25:36.047Z,98589.55
2023-01-10T13:28:52.763Z,98596.23
2023-01-10T13:32:01.673Z,98600.58
2023-01-10T13:35:19.779Z,98605.04
2023-01-10T13:38:59.273Z,98609.18
2023-01-10T13:42:20.268Z,98621.54
2023-01-10T13:45:25.785Z,98626.30
2023-01-10T13:48:28.463Z,98624.38
2023-01-10T13:51:31.895Z,98624.50
2023-01-10T13:54:35.199Z,98633.27
2023-01-10T13:57:59.152Z,98635.77
2023-01-10T14:01:21.253Z,98637.81
2023-01-10T14:04:53.360Z,98647.21
2023-01-10T14:07:58.044Z,98650.05
2023-01-10T14:11:13.934Z,98657.56
2023-01-10T14:14:27.181Z,98658.15
2023-01-10T14:17:35.387Z,98659.05
2023-01-10T14:20:37.879Z,98662.45
2023-01-10T14:23:50.119Z,98664.20
2023-01-10T14:26:57.564Z,98670.34
2023-01-10T14:30:01.253Z,98673.43
2023-01-10T14:33:22.147Z,98671.30
2023-01-10T14:36:35.184Z,98672.50
2023-01-10T14:39:38.406Z,98672.93
2023-01-10T14:42:41.987Z,98664.25
2023-01-10T14:46:02.547Z,98665.18
2023-01-10T14:49:35.417Z,98669.06
2023-01-10T14:52:43.351Z,98667.91
2023-01-10T14:55:45.680Z,98674.17
2023-01-10T14:58:48.097Z,98679.19
2023-01-10T15:02:02.471Z,98680.15
2023-01-10T15:05:18.517Z,98682.55
2023-01-10T15:08:25.925Z,98682.11
2023-01-10T15:11:31.160Z,98691.06
2023-01-10T15:14:37.545Z,98690.77
2023-01-10T15:17:41.556Z,98690.50
2023-01-10T15:20:44.204Z,98702.29
2023-01-10T15:23:47.577Z,98703.44
2023-01-10T15:51:26.640Z,98732.06
2023-01-10T17:57:52.515Z,98879.64
2023-01-10T18:15:07.884Z,98889.11
2023-01-10T20:11:36.777Z,98947.17
2023-01-10T20:14:55.325Z,98949.05
2023-01-10T20:32:23.398Z,98933.64
2023-01-10T23:36:12.048Z,99002.96
